createdAt,value
2017-09-08T00:01:25.223Z,61.40
2017-09-08T00:03:52.746Z,61.30
2017-09-08T00:06:20.278Z,61.40
2017-09-08T00:08:47.809Z,62.00
2017-09-08T00:11:16.130Z,61.70
2017-09-08T00:13:43.657Z,61.70
2017-09-08T00:16:11.189Z,61.80
2017-09-08T00:18:38.722Z,61.10
2017-09-08T00:21:06.257Z,61.50
2017-09-08T00:23:33.809Z,61.30
2017-09-08T00:26:01.341Z,61.40
2017-09-08T00:28:29.630Z,60.20
2017-09-08T00:30:57.219Z,60.10
2017-09-08T00:33:24.742Z,59.60
2017-09-08T00:35:53.059Z,59.20
2017-09-08T00:38:20.582Z,59.20
2017-09-08T00:40:48.109Z,59.40
2017-09-08T00:43:16.410Z,60.00
2017-09-08T00:45:44.697Z,60.00
2017-09-08T00:48:12.249Z,59.90
2017-09-08T00:50:39.787Z,59.70
2017-09-08T00:53:07.323Z,60.00
2017-09-08T00:55:34.848Z,59.70
2017-09-08T00:58:02.418Z,59.10
2017-09-08T01:00:29.977Z,58.80
2017-09-08T01:02:57.497Z,59.00
2017-09-08T01:05:25.026Z,58.60
2017-09-08T01:07:52.654Z,59.10
2017-09-08T01:10:20.177Z,59.40
2017-09-08T01:12:48.070Z,59.70
2017-09-08T01:15:15.598Z,60.10
2017-09-08T01:17:43.162Z,60.40
2017-09-08T01:20:10.785Z,60.30
2017-09-08T01:22:38.310Z,60.00
2017-09-08T01:25:05.866Z,59.60
2017-09-08T01:27:33.398Z,59.50
2017-09-08T01:30:00.922Z,59.50
2017-09-08T01:32:28.446Z,59.80
2017-09-08T01:34:55.977Z,59.90
2017-09-08T01:37:23.526Z,59.60
2017-09-08T01:39:51.054Z,59.20
2017-09-08T01:42:18.581Z,58.80
2017-09-08T01:44:46.119Z,58.80
2017-09-08T01:47:13.650Z,59.60
2017-09-08T01:49:41.985Z,60.00
2017-09-08T01:52:09.512Z,59.90
2017-09-08T01:54:37.042Z,60.00
2017-09-08T01:57:04.570Z,59.70
2017-09-08T01:59:32.097Z,60.30
2017-09-08T02:01:59.669Z,59.80
2017-09-08T02:04:27.204Z,59.70
2017-09-08T02:06:54.730Z,60.30
2017-09-08T02:09:23.025Z,60.20
2017-09-08T02:11:50.546Z,60.20
2017-09-08T02:14:18.128Z,60.00
2017-09-08T02:16:46.422Z,60.40
2017-09-08T02:19:13.953Z,60.40
2017-09-08T02:21:47.950Z,60.00
2017-09-08T02:24:15.477Z,60.00
2017-09-08T02:26:43.030Z,60.10
2017-09-08T02:29:10.549Z,60.00
2017-09-08T02:31:38.837Z,59.70
2017-09-08T02:34:06.362Z,60.40
2017-09-08T02:36:34.662Z,60.40
2017-09-08T02:39:02.222Z,60.40
2017-09-08T02:41:29.753Z,59.80
2017-09-08T02:43:57.286Z,59.30
2017-09-08T02:46:24.819Z,59.40
2017-09-08T02:48:52.346Z,59.60
2017-09-08T02:51:19.903Z,60.00
2017-09-08T02:53:48.206Z,59.90
2017-09-08T02:56:15.730Z,59.90
2017-09-08T02:58:44.022Z,60.80
2017-09-08T03:01:11.556Z,60.80
2017-09-08T03:03:39.113Z,60.60
2017-09-08T03:06:06.637Z,60.50
2017-09-08T03:08:34.163Z,60.20
2017-09-08T03:11:01.698Z,61.40
2017-09-08T03:13:30.002Z,62.80
2017-09-08T03:15:57.560Z,62.70
2017-09-08T03:18:25.092Z,63.20
2017-09-08T03:20:53.394Z,63.50
2017-09-08T03:23:20.919Z,63.50
2017-09-08T03:25:48.447Z,62.30
2017-09-08T03:28:16.002Z,62.70
2017-09-08T03:30:43.539Z,62.90
2017-09-08T03:33:11.074Z,62.40
2017-09-08T03:35:38.606Z,62.40
2017-09-08T03:38:06.157Z,61.90
2017-09-08T03:40:33.716Z,62.00
2017-09-08T03:43:01.242Z,61.30
2017-09-08T03:45:28.766Z,61.30
2017-09-08T03:47:56.298Z,61.10
2017-09-08T03:50:23.824Z,61.00
2017-09-08T03:52:51.378Z,60.50
2017-09-08T03:55:18.904Z,60.80
2017-09-08T03:57:46.430Z,60.70
2017-09-08T04:00:14.720Z,60.30
2017-09-08T04:02:43.011Z,59.60
2017-09-08T04:05:10.570Z,59.60
2017-09-08T04:07:38.101Z,59.30
2017-09-08T04:10:06.402Z,59.30
2017-09-08T04:12:33.933Z,59.30
2017-09-08T04:15:01.461Z,59.10
2017-09-08T04:17:29.018Z,58.80
2017-09-08T04:19:56.541Z,58.60
2017-09-08T04:22:24.066Z,58.60
2017-09-08T04:24:52.368Z,60.00
2017-09-08T04:27:19.897Z,59.70
2017-09-08T04:29:47.453Z,60.20
2017-09-08T04:32:14.989Z,60.20
2017-09-08T04:34:42.523Z,60.10
2017-09-08T04:37:10.045Z,59.80
2017-09-08T04:39:38.335Z,59.80
2017-09-08T04:42:05.895Z,59.80
2017-09-08T04:44:33.433Z,59.30
2017-09-08T04:47:01.732Z,58.70
2017-09-08T04:49:29.262Z,58.60
2017-09-08T04:51:56.785Z,58.10
2017-09-08T04:54:24.356Z,58.10
2017-09-08T04:56:51.882Z,58.40
2017-09-08T04:59:19.412Z,59.50
2017-09-08T05:01:47.707Z,59.60
2017-09-08T05:04:15.237Z,59.60
2017-09-08T05:06:42.792Z,59.50
2017-09-08T05:09:11.086Z,59.00
2017-09-08T05:11:38.623Z,59.00
2017-09-08T05:14:06.921Z,59.30
2017-09-08T05:16:35.222Z,58.50
2017-09-08T05:19:02.793Z,58.50
2017-09-08T05:21:30.317Z,58.60
2017-09-08T05:23:57.940Z,58.80
2017-09-08T05:26:26.238Z,59.30
2017-09-08T05:28:54.534Z,59.60
2017-09-08T05:31:22.105Z,59.50
2017-09-08T05:33:49.635Z,59.50
2017-09-08T05:36:17.934Z,59.10
2017-09-08T05:38:45.466Z,59.10
2017-09-08T05:41:13.754Z,59.70
2017-09-08T05:43:41.315Z,60.40
2017-09-08T05:46:08.851Z,59.80
2017-09-08T05:48:37.146Z,60.00
2017-09-08T05:51:04.673Z,60.00
2017-09-08T05:53:32.198Z,59.70
2017-09-08T05:55:59.753Z,59.80
2017-09-08T05:58:27.281Z,60.10
2017-09-08T06:00:54.809Z,60.80
2017-09-08T06:03:22.341Z,60.50
2017-09-08T06:05:49.866Z,60.30
2017-09-08T06:08:17.422Z,60.60
2017-09-08T06:10:44.954Z,60.40
2017-09-08T06:13:13.288Z,62.20
2017-09-08T06:15:40.808Z,62.10
2017-09-08T06:18:08.329Z,62.10
2017-09-08T06:20:35.890Z,62.20
2017-09-08T06:23:04.181Z,62.40
2017-09-08T06:25:32.473Z,61.40
2017-09-08T06:27:59.998Z,61.30
2017-09-08T06:30:27.530Z,61.30
2017-09-08T06:32:55.089Z,60.70
2017-09-08T06:35:22.621Z,59.50
2017-09-08T06:37:50.153Z,59.10
2017-09-08T06:40:18.460Z,59.20
2017-09-08T06:42:46.035Z,59.10
2017-09-08T06:45:13.590Z,59.10
2017-09-08T06:47:41.118Z,58.70
2017-09-08T06:50:09.405Z,58.20
2017-09-08T06:52:36.946Z,58.20
2017-09-08T06:55:04.485Z,58.80
2017-09-08T06:57:32.049Z,59.30
2017-09-08T07:00:00.350Z,61.20
2017-09-08T07:02:27.882Z,61.20
2017-09-08T07:04:56.187Z,58.60
2017-09-08T07:07:23.712Z,58.50
2017-09-08T07:09:51.270Z,57.70
2017-09-08T07:12:18.798Z,58.10
2017-09-08T07:14:46.331Z,57.80
2017-09-08T07:17:13.862Z,58.20
2017-09-08T07:19:42.154Z,59.10
2017-09-08T07:22:09.705Z,59.00
2017-09-08T07:24:37.243Z,57.80
2017-09-08T07:27:04.778Z,56.80
2017-09-08T07:29:32.310Z,55.90
2017-09-08T07:31:59.874Z,55.80
2017-09-08T07:34:27.425Z,55.60
2017-09-08T07:36:54.945Z,55.70
2017-09-08T07:39:23.240Z,54.30
2017-09-08T07:41:50.781Z,54.30
2017-09-08T07:44:19.069Z,54.70
2017-09-08T07:46:46.623Z,54.60
2017-09-08T07:49:14.909Z,55.00
2017-09-08T07:51:42.434Z,55.00
2017-09-08T07:54:10.734Z,56.10
2017-09-08T07:56:39.031Z,55.20
2017-09-08T07:59:06.628Z,55.20
2017-09-08T08:01:34.157Z,55.50
2017-09-08T08:04:01.689Z,54.80
2017-09-08T08:06:29.213Z,54.30
2017-09-08T08:08:56.741Z,53.40
2017-09-08T08:11:24.289Z,53.40
2017-09-08T08:13:51.820Z,53.50
2017-09-08T08:16:19.363Z,53.40
2017-09-08T08:18:47.657Z,53.20
2017-09-08T08:21:15.181Z,53.10
2017-09-08T08:23:42.739Z,53.00
2017-09-08T08:26:10.270Z,53.40
2017-09-08T08:28:37.810Z,53.30
2017-09-08T08:31:05.367Z,53.80
2017-09-08T08:33:32.898Z,53.80
2017-09-08T08:36:01.219Z,53.00
2017-09-08T08:38:28.753Z,52.90
2017-09-08T08:40:56.286Z,52.20
2017-09-08T08:43:24.578Z,51.30
2017-09-08T08:45:52.120Z,51.20
2017-09-08T08:48:20.450Z,51.40
2017-09-08T08:50:47.986Z,51.30
2017-09-08T08:53:15.513Z,51.50
2017-09-08T08:55:43.813Z,51.90
2017-09-08T08:58:11.347Z,51.90
2017-09-08T09:00:39.666Z,50.40
2017-09-08T09:03:07.194Z,50.40
2017-09-08T09:05:34.725Z,50.30
2017-09-08T09:08:02.250Z,49.80
2017-09-08T09:10:29.787Z,48.90
2017-09-08T09:12:57.342Z,47.40
2017-09-08T09:15:24.866Z,47.40
2017-09-08T09:17:53.166Z,45.70
2017-09-08T09:20:20.708Z,45.70
2017-09-08T09:22:49.001Z,47.10
2017-09-08T09:25:16.558Z,47.00
2017-09-08T09:27:44.089Z,47.70
2017-09-08T09:30:12.386Z,46.80
2017-09-08T09:32:40.690Z,47.20
2017-09-08T09:35:08.213Z,47.20
2017-09-08T09:37:36.538Z,47.30
2017-09-08T09:40:04.066Z,47.30
2017-09-08T09:42:31.598Z,47.70
2017-09-08T09:44:59.893Z,47.20
2017-09-08T09:47:28.186Z,46.50
2017-09-08T09:49:55.740Z,46.30
2017-09-08T09:52:23.276Z,45.50
2017-09-08T09:54:51.575Z,45.30
2017-09-08T09:57:19.149Z,45.30
2017-09-08T09:59:46.673Z,44.60
2017-09-08T10:02:14.237Z,44.10
2017-09-08T10:04:41.770Z,44.30
2017-09-08T10:07:09.305Z,44.50
2017-09-08T10:09:36.835Z,44.60
2017-09-08T10:12:04.358Z,45.80
2017-09-08T10:14:32.690Z,44.50
2017-09-08T10:17:00.220Z,44.60
2017-09-08T10:19:27.752Z,44.70
2017-09-08T10:21:56.043Z,43.30
2017-09-08T10:24:23.578Z,43.20
2017-09-08T10:26:51.902Z,41.90
2017-09-08T10:29:19.443Z,41.90
2017-09-08T10:31:46.970Z,41.60
2017-09-08T10:34:15.274Z,43.00
2017-09-08T10:36:42.847Z,42.30
2017-09-08T10:39:10.393Z,41.20
2017-09-08T10:41:37.917Z,41.40
2017-09-08T10:44:05.445Z,41.10
2017-09-08T10:46:32.970Z,42.20
2017-09-08T10:49:00.494Z,41.90
2017-09-08T10:51:28.820Z,42.00
2017-09-08T10:53:56.362Z,42.40
2017-09-08T10:56:23.898Z,43.10
2017-09-08T10:58:52.219Z,42.20
2017-09-08T11:01:19.754Z,42.10
2017-09-08T11:03:47.550Z,42.40
2017-09-08T11:06:15.078Z,42.80
2017-09-08T11:08:42.607Z,42.60
2017-09-08T11:11:10.913Z,43.40
2017-09-08T11:13:38.437Z,42.70
2017-09-08T11:16:05.986Z,41.70
2017-09-08T11:18:33.517Z,40.30
2017-09-08T11:21:01.054Z,39.50
2017-09-08T11:23:28.583Z,38.50
2017-09-08T11:25:56.877Z,37.40
2017-09-08T11:28:24.442Z,37.30
2017-09-08T11:30:51.974Z,37.40
2017-09-08T11:33:26.166Z,35.10
2017-09-08T11:35:59.365Z,35.00
2017-09-08T11:38:26.926Z,35.10
2017-09-08T11:40:54.461Z,36.50
2017-09-08T11:43:21.988Z,37.00
2017-09-08T11:45:49.514Z,36.80
2017-09-08T11:48:17.833Z,36.80
2017-09-08T11:50:45.386Z,36.80
2017-09-08T11:53:12.931Z,35.90
2017-09-08T11:55:40.460Z,35.20
2017-09-08T11:58:08.757Z,33.30
2017-09-08T12:00:37.056Z,31.80
2017-09-08T12:03:04.610Z,31.70
2017-09-08T12:05:32.154Z,30.30
2017-09-08T12:07:59.681Z,29.50
2017-09-08T12:10:27.205Z,29.60
2017-09-08T12:12:54.725Z,29.00
2017-09-08T12:15:22.281Z,28.80
2017-09-08T12:17:49.805Z,28.70
2017-09-08T12:20:17.331Z,28.50
2017-09-08T12:22:44.864Z,27.90
2017-09-08T12:25:12.391Z,27.80
2017-09-08T12:27:40.711Z,27.50
2017-09-08T12:30:08.242Z,27.50
2017-09-08T12:32:36.538Z,27.80
2017-09-08T12:35:04.110Z,27.70
2017-09-08T12:37:31.637Z,27.90
2017-09-08T12:39:59.958Z,30.20
2017-09-08T12:42:27.489Z,30.20
2017-09-08T12:44:55.021Z,31.00
2017-09-08T12:47:22.554Z,31.00
2017-09-08T12:49:50.081Z,30.30
2017-09-08T12:52:17.626Z,30.90
2017-09-08T12:54:45.162Z,30.80
2017-09-08T12:57:13.470Z,29.90
2017-09-08T12:59:41.042Z,29.80
2017-09-08T13:02:08.606Z,29.60
2017-09-08T13:04:36.166Z,28.60
2017-09-08T13:07:03.697Z,28.60
2017-09-08T13:09:31.229Z,29.10
2017-09-08T13:11:59.530Z,28.20
2017-09-08T13:14:27.061Z,28.10
2017-09-08T13:16:55.390Z,27.40
2017-09-08T13:19:22.922Z,27.30
2017-09-08T13:21:50.461Z,26.90
2017-09-08T13:24:18.794Z,26.30
2017-09-08T13:26:46.322Z,26.80
2017-09-08T13:29:13.869Z,25.80
2017-09-08T13:31:41.462Z,25.30
2017-09-08T13:34:08.986Z,25.10
2017-09-08T13:36:36.530Z,25.00
2017-09-08T13:39:04.832Z,24.70
2017-09-08T13:41:32.390Z,24.70
2017-09-08T13:43:59.959Z,24.50
2017-09-08T13:46:27.486Z,24.10
2017-09-08T13:48:55.777Z,23.90
2017-09-08T13:51:23.302Z,23.90
2017-09-08T13:53:51.638Z,25.30
2017-09-08T13:56:19.171Z,25.20
2017-09-08T13:58:46.699Z,26.70
2017-09-08T14:01:14.986Z,27.30
2017-09-08T14:03:43.283Z,26.90
2017-09-08T14:06:10.835Z,26.90
2017-09-08T14:08:38.379Z,27.10
2017-09-08T14:11:06.672Z,28.00
2017-09-08T14:13:34.206Z,28.00
2017-09-08T14:16:02.507Z,29.10
2017-09-08T14:18:30.072Z,29.00
2017-09-08T14:20:57.597Z,29.80
2017-09-08T14:23:25.894Z,30.80
2017-09-08T14:25:54.198Z,30.80
2017-09-08T14:28:21.721Z,30.70
2017-09-08T14:30:50.045Z,31.40
2017-09-08T14:33:17.577Z,31.40
2017-09-08T14:35:45.110Z,32.00
2017-09-08T14:38:13.411Z,32.90
2017-09-08T14:40:40.934Z,32.90
2017-09-08T14:43:09.261Z,34.60
2017-09-08T14:45:36.790Z,34.50
2017-09-08T14:48:05.099Z,34.90
2017-09-08T14:50:32.632Z,34.90
2017-09-08T14:53:00.170Z,35.10
2017-09-08T14:55:28.588Z,36.10
2017-09-08T14:57:56.126Z,36.70
2017-09-08T15:00:23.727Z,36.60
2017-09-08T15:02:51.254Z,36.60
2017-09-08T15:05:18.788Z,36.00
2017-09-08T15:07:47.315Z,34.70
2017-09-08T15:10:14.841Z,34.60
2017-09-08T15:12:43.141Z,34.20
2017-09-08T15:15:10.675Z,34.20
2017-09-08T15:17:38.977Z,34.60
2017-09-08T15:20:06.538Z,34.60
2017-09-08T15:22:34.070Z,35.20
2017-09-08T15:25:01.610Z,36.00
2017-09-08T15:27:29.146Z,36.40
2017-09-08T15:29:56.689Z,36.30
2017-09-08T15:32:24.243Z,36.20
2017-09-08T15:34:51.794Z,36.10
2017-09-08T15:37:19.615Z,36.40
2017-09-08T15:39:47.141Z,36.60
2017-09-08T15:42:14.668Z,37.20
2017-09-08T15:44:42.222Z,38.40
2017-09-08T15:47:09.751Z,38.80
2017-09-08T15:49:38.049Z,39.20
2017-09-08T15:52:05.573Z,39.20
2017-09-08T15:54:33.878Z,39.30
2017-09-08T15:57:01.430Z,39.30
2017-09-08T15:59:28.962Z,39.20
2017-09-08T16:01:56.504Z,39.20
2017-09-08T16:04:24.042Z,39.10
2017-09-08T16:06:51.565Z,39.10
2017-09-08T16:09:19.126Z,39.30
2017-09-08T16:11:46.655Z,39.30
2017-09-08T16:14:14.958Z,39.60
2017-09-08T16:16:43.254Z,39.50
2017-09-08T16:19:10.786Z,39.40
2017-09-08T16:21:39.106Z,39.70
2017-09-08T16:24:06.630Z,39.60
2017-09-08T16:26:34.158Z,39.70
2017-09-08T16:29:02.457Z,40.10
2017-09-08T16:31:30.746Z,40.60
2017-09-08T16:33:58.295Z,40.60
2017-09-08T16:36:26.722Z,40.90
2017-09-08T16:38:54.255Z,41.10
2017-09-08T16:41:21.782Z,40.70
2017-09-08T16:43:50.073Z,40.60
2017-09-08T16:46:17.632Z,40.60
2017-09-08T16:48:45.161Z,40.80
2017-09-08T16:51:12.722Z,40.70
2017-09-08T16:53:41.029Z,40.40
2017-09-08T16:56:08.558Z,40.30
2017-09-08T16:58:36.890Z,40.80
2017-09-08T17:01:04.413Z,40.80
2017-09-08T17:03:31.958Z,41.10
2017-09-08T17:06:00.253Z,41.40
2017-09-08T17:08:27.782Z,41.30
2017-09-08T17:10:56.108Z,41.50
2017-09-08T17:13:23.629Z,41.30
2017-09-08T17:15:51.153Z,41.40
2017-09-08T17:18:18.687Z,41.50
2017-09-08T17:20:46.218Z,41.90
2017-09-08T17:23:13.779Z,42.20
2017-09-08T17:25:41.305Z,42.50
2017-09-08T17:28:09.598Z,42.90
2017-09-08T17:30:37.125Z,42.50
2017-09-08T17:33:04.664Z,42.60
2017-09-08T17:35:32.221Z,42.60
2017-09-08T17:37:59.754Z,43.10
2017-09-08T17:40:27.287Z,42.90
2017-09-08T17:42:55.579Z,43.10
2017-09-08T17:45:23.105Z,43.10
2017-09-08T17:47:51.425Z,43.50
2017-09-08T17:50:19.003Z,43.30
2017-09-08T17:52:46.528Z,43.60
2017-09-08T17:55:14.064Z,43.90
2017-09-08T17:57:42.357Z,45.20
2017-09-08T18:00:09.942Z,45.20
2017-09-08T18:02:37.479Z,45.80
2017-09-08T18:05:05.018Z,46.70
2017-09-08T18:07:33.318Z,48.30
2017-09-08T18:10:00.849Z,48.20
2017-09-08T18:12:29.174Z,47.90
2017-09-08T18:14:56.706Z,48.30
2017-09-08T18:17:24.249Z,48.90
2017-09-08T18:19:52.546Z,49.30
2017-09-08T18:22:20.075Z,49.20
2017-09-08T18:24:47.637Z,48.40
2017-09-08T18:27:15.942Z,49.30
2017-09-08T18:29:43.471Z,49.20
2017-09-08T18:32:11.774Z,48.30
2017-09-08T18:34:39.309Z,48.20
2017-09-08T18:37:07.638Z,48.00
2017-09-08T18:39:35.166Z,47.90
2017-09-08T18:42:02.698Z,47.80
2017-09-08T18:44:31.007Z,48.50
2017-09-08T18:46:58.582Z,48.00
2017-09-08T18:49:26.138Z,47.80
2017-09-08T18:51:53.674Z,47.50
2017-09-08T18:54:21.217Z,47.30
2017-09-08T18:56:48.750Z,47.10
2017-09-08T18:59:16.313Z,46.80
2017-09-08T19:01:43.885Z,46.80
2017-09-08T19:04:12.182Z,47.00
2017-09-08T19:06:39.730Z,46.90
2017-09-08T19:09:08.030Z,47.20
2017-09-08T19:11:35.575Z,47.10
2017-09-08T19:14:03.898Z,46.60
2017-09-08T19:16:31.462Z,46.60
2017-09-08T19:18:58.990Z,46.50
2017-09-08T19:21:26.529Z,46.40
2017-09-08T19:23:54.829Z,46.60
2017-09-08T19:26:22.388Z,46.60
2017-09-08T19:28:49.925Z,46.80
2017-09-08T19:31:17.457Z,46.70
2017-09-08T19:33:44.992Z,46.80
2017-09-08T19:36:12.526Z,46.90
2017-09-08T19:38:40.102Z,47.00
2017-09-08T19:41:07.650Z,47.10
2017-09-08T19:43:35.173Z,47.80
2017-09-08T19:46:02.710Z,47.90
2017-09-08T19:48:30.239Z,47.90
2017-09-08T19:50:57.768Z,47.80
2017-09-08T19:53:25.302Z,47.90
2017-09-08T19:55:53.593Z,48.40
2017-09-08T19:58:21.122Z,48.40
2017-09-08T20:00:48.709Z,48.80
2017-09-08T20:03:16.238Z,48.80
2017-09-08T20:05:44.536Z,49.10
2017-09-08T20:08:12.074Z,49.00
2017-09-08T20:10:40.370Z,48.90
2017-09-08T20:13:07.919Z,48.80
2017-09-08T20:15:35.446Z,48.90
2017-09-08T20:18:02.970Z,49.20
2017-09-08T20:20:30.505Z,49.10
2017-09-08T20:22:58.034Z,49.00
2017-09-08T20:25:26.362Z,49.00
2017-09-08T20:27:53.887Z,49.00
2017-09-08T20:30:22.178Z,49.40
2017-09-08T20:32:49.753Z,49.30
2017-09-08T20:35:17.262Z,49.30
2017-09-08T20:37:45.579Z,50.30
2017-09-08T20:40:13.114Z,49.50
2017-09-08T20:42:41.438Z,50.00
2017-09-08T20:45:08.970Z,49.90
2017-09-08T20:47:36.493Z,50.40
2017-09-08T20:50:04.822Z,50.20
2017-09-08T20:52:32.349Z,50.10
2017-09-08T20:54:59.881Z,50.80
2017-09-08T20:57:27.405Z,51.20
2017-09-08T20:59:54.929Z,51.30
2017-09-08T21:02:22.490Z,50.80
2017-09-08T21:04:50.082Z,51.30
2017-09-08T21:07:17.615Z,51.30
2017-09-08T21:09:45.176Z,50.60
2017-09-08T21:12:12.709Z,50.80
2017-09-08T21:14:41.025Z,50.60
2017-09-08T21:17:08.565Z,50.50
2017-09-08T21:19:36.094Z,51.00
2017-09-08T21:22:04.394Z,50.40
2017-09-08T21:24:31.926Z,50.30
2017-09-08T21:26:59.478Z,50.00
2017-09-08T21:29:27.778Z,50.20
2017-09-08T21:31:55.314Z,49.50
2017-09-08T21:34:23.614Z,49.10
2017-09-08T21:36:51.912Z,49.20
2017-09-08T21:39:19.473Z,49.10
2017-09-08T21:41:47.006Z,49.30
2017-09-08T21:44:15.302Z,49.20
2017-09-08T21:46:42.830Z,49.10
2017-09-08T21:49:10.354Z,49.20
2017-09-08T21:51:38.094Z,49.10
2017-09-08T21:54:05.625Z,48.90
2017-09-08T21:56:33.149Z,48.60
2017-09-08T21:59:00.678Z,48.50
2017-09-08T22:01:28.210Z,48.50
2017-09-08T22:03:55.773Z,48.60
2017-09-08T22:06:23.299Z,48.70
2017-09-08T22:08:51.594Z,48.60
2017-09-08T22:11:19.177Z,48.50
2017-09-08T22:13:47.214Z,48.50
2017-09-08T22:16:14.773Z,48.50
2017-09-08T22:18:43.067Z,48.80
2017-09-08T22:21:10.603Z,48.70
2017-09-08T22:23:38.891Z,48.90
2017-09-08T22:26:06.426Z,48.90
2017-09-08T22:28:34.756Z,49.40
2017-09-08T22:31:02.289Z,49.30
2017-09-08T22:33:29.825Z,49.30
2017-09-08T22:35:58.118Z,49.20
2017-09-08T22:38:25.659Z,49.20
2017-09-08T22:40:53.977Z,49.10
2017-09-08T22:43:21.501Z,49.10
2017-09-08T22:45:49.797Z,48.60
2017-09-08T22:48:17.317Z,48.60
2017-09-08T22:50:45.650Z,49.20
2017-09-08T22:53:13.222Z,48.60
2017-09-08T22:55:40.759Z,48.70
2017-09-08T22:58:08.285Z,48.70
2017-09-08T23:00:36.585Z,49.80
2017-09-08T23:03:04.110Z,49.80
2017-09-08T23:05:32.430Z,49.00
2017-09-08T23:07:59.957Z,49.00
2017-09-08T23:10:27.526Z,48.70
2017-09-08T23:12:55.054Z,49.00
2017-09-08T23:15:22.582Z,49.20
2017-09-08T23:17:50.138Z,49.30
2017-09-08T23:20:17.677Z,49.70
2017-09-08T23:22:45.274Z,49.50
2017-09-08T23:25:12.804Z,49.50
2017-09-08T23:27:40.346Z,49.60
2017-09-08T23:30:07.914Z,50.20
2017-09-08T23:32:35.436Z,50.20
2017-09-08T23:35:03.725Z,50.00
2017-09-08T23:37:31.261Z,49.80
2017-09-08T23:39:59.553Z,50.80
2017-09-08T23:42:27.107Z,50.10
2017-09-08T23:44:55.417Z,51.00
2017-09-08T23:47:22.942Z,50.90
2017-09-08T23:49:51.235Z,50.70
2017-09-08T23:52:18.785Z,51.20
2017-09-08T23:54:47.101Z,50.40
2017-09-08T23:57:14.626Z,50.40
2017-09-08T23:59:42.159Z,50.30
